Time;durP1;ratioP1;P1;durP2;ratioP2;P2;SDS_P1;SDS_P2;PMS_P1;PMS_P2;Temp;Humidity;BMP_temperature;BMP_pressure;BME280_temperature;BME280_humidity;BME280_pressure;Samples;Min_cycle;Max_cycle;Signal;HPM_P1;HPM_P2
2023/06/06 00:00:30;;;;;;;9.53;3.87;;;15.90;99.90;;;;;;5054599;28;20263;-78
2023/06/06 00:02:56;;;;;;;5.97;3.67;;;15.90;1.00;;;;;;5053265;28;20195;-78
2023/06/06 00:05:25;;;;;;;7.90;4.30;;;15.90;99.90;;;;;;5053897;28;20180;-78
2023/06/06 00:07:51;;;;;;;4.60;3.73;;;15.90;99.90;;;;;;5053630;28;20179;-77
2023/06/06 00:10:18;;;;;;;6.80;3.83;;;15.90;99.90;;;;;;5055496;28;20202;-78
2023/06/06 00:12:44;;;;;;;6.27;3.93;;;15.80;99.90;;;;;;5053083;28;20286;-78
2023/06/06 00:15:12;;;;;;;7.17;4.43;;;15.80;24.80;;;;;;5053688;28;20190;-78
2023/06/06 00:17:39;;;;;;;7.13;3.97;;;15.80;1.00;;;;;;5053592;28;20172;-78
2023/06/06 00:20:08;;;;;;;6.70;3.67;;;15.70;1.00;;;;;;5053408;28;20598;-78
2023/06/06 00:22:35;;;;;;;6.37;3.50;;;15.70;1.00;;;;;;5054314;28;20226;-79
2023/06/06 00:25:01;;;;;;;8.90;4.37;;;15.70;5.90;;;;;;5054742;28;20172;-78
2023/06/06 00:27:26;;;;;;;6.60;4.17;;;15.70;1.00;;;;;;5053019;28;20262;-78
2023/06/06 00:29:52;;;;;;;5.67;4.13;;;15.70;1.00;;;;;;5053728;28;20175;-78
2023/06/06 00:32:17;;;;;;;8.90;4.33;;;15.60;2.50;;;;;;5053002;28;20614;-80
2023/06/06 00:34:43;;;;;;;9.20;4.77;;;15.60;99.90;;;;;;5053078;28;20175;-79
2023/06/06 00:37:08;;;;;;;5.60;4.00;;;15.60;99.90;;;;;;5054424;28;20660;-79
2023/06/06 00:39:34;;;;;;;7.70;4.70;;;15.50;99.90;;;;;;5054947;28;20168;-78
2023/06/06 00:41:59;;;;;;;8.10;4.77;;;15.50;99.90;;;;;;5053209;28;20176;-78
2023/06/06 00:44:25;;;;;;;9.43;4.50;;;15.50;99.90;;;;;;5054754;28;20676;-78
2023/06/06 00:46:51;;;;;;;6.90;4.60;;;15.50;99.90;;;;;;5054179;28;20184;-79
2023/06/06 00:49:17;;;;;;;7.50;4.10;;;15.30;99.90;;;;;;5053037;28;20191;-79
2023/06/06 00:51:44;;;;;;;6.03;4.60;;;15.40;1.00;;;;;;5054820;28;20192;-78
2023/06/06 00:54:13;;;;;;;7.87;4.37;;;15.30;1.00;;;;;;5054218;28;20179;-79
2023/06/06 00:56:39;;;;;;;6.27;4.93;;;15.30;1.00;;;;;;5053144;28;20697;-78
2023/06/06 00:59:06;;;;;;;9.10;4.70;;;15.30;1.00;;;;;;5055410;28;20183;-79
2023/06/06 01:01:34;;;;;;;5.53;4.67;;;15.20;1.00;;;;;;5058637;28;20178;-79
2023/06/06 01:04:02;;;;;;;6.27;4.67;;;15.20;1.00;;;;;;5066874;28;20200;-78
2023/06/06 01:06:33;;;;;;;6.23;4.13;;;15.20;1.00;;;;;;5067273;28;20254;-78
2023/06/06 01:09:01;;;;;;;6.67;4.50;;;15.20;1.00;;;;;;5054521;28;20313;-78
2023/06/06 01:11:36;;;;;;;9.17;5.03;;;15.20;1.00;;;;;;5054361;28;20226;-78
2023/06/06 01:14:13;;;;;;;6.30;4.40;;;15.20;1.00;;;;;;5055531;28;20322;-78
2023/06/06 01:16:40;;;;;;;4.93;4.30;;;15.20;1.00;;;;;;5057640;28;20535;-79
2023/06/06 01:19:16;;;;;;;6.47;5.00;;;15.20;1.00;;;;;;5057716;28;20268;-77
2023/06/06 01:21:41;;;;;;;6.27;4.83;;;15.10;1.00;;;;;;5056159;28;20175;-79
2023/06/06 01:24:08;;;;;;;7.33;4.57;;;15.10;1.00;;;;;;5057964;28;20187;-77
2023/06/06 01:26:34;;;;;;;5.47;4.87;;;15.10;1.00;;;;;;5056308;28;20176;-78
2023/06/06 01:29:00;;;;;;;7.63;6.07;;;15.00;37.30;;;;;;5055708;28;20183;-79
2023/06/06 01:31:32;;;;;;;5.70;4.97;;;15.00;58.10;;;;;;5056158;28;20207;-78
2023/06/06 01:34:06;;;;;;;7.10;4.57;;;15.00;99.90;;;;;;5055713;28;20195;-78
2023/06/06 01:36:46;;;;;;;8.17;4.53;;;15.00;99.90;;;;;;5057270;28;20183;-78
2023/06/06 01:39:15;;;;;;;10.13;5.00;;;14.70;99.90;;;;;;5058049;28;20529;-77
2023/06/06 01:41:44;;;;;;;11.60;5.30;;;14.90;99.90;;;;;;5056972;28;20196;-78
2023/06/06 01:44:11;;;;;;;8.90;5.10;;;14.90;99.90;;;;;;5056123;28;20179;-79
2023/06/06 01:46:37;;;;;;;8.80;5.27;;;14.90;99.90;;;;;;5056442;28;20183;-78
2023/06/06 01:49:04;;;;;;;6.30;4.83;;;14.90;99.90;;;;;;5056235;28;20541;-77
2023/06/06 01:51:30;;;;;;;8.07;5.00;;;14.80;99.90;;;;;;5056440;28;20215;-78
2023/06/06 01:53:58;;;;;;;11.17;5.60;;;14.80;99.90;;;;;;5056275;28;20188;-78
2023/06/06 01:56:25;;;;;;;8.23;5.17;;;14.80;99.90;;;;;;5055430;28;20172;-78
2023/06/06 01:58:51;;;;;;;9.50;5.13;;;14.80;99.90;;;;;;5056505;28;20539;-78
2023/06/06 02:18:32;;;;;;;10.17;5.57;;;14.70;99.90;;;;;;5056874;28;20194;-78
2023/06/06 02:20:58;;;;;;;6.30;5.27;;;14.60;99.90;;;;;;5055006;28;20183;-79
2023/06/06 02:23:23;;;;;;;7.77;5.20;;;14.60;1.00;;;;;;5055495;28;20193;-77
2023/06/06 02:25:50;;;;;;;6.30;5.40;;;14.50;1.00;;;;;;5056155;28;20279;-79
2023/06/06 02:28:16;;;;;;;8.30;5.43;;;14.50;1.00;;;;;;5057025;28;20251;-78
2023/06/06 02:30:42;;;;;;;8.37;5.90;;;14.50;1.00;;;;;;5055646;28;20243;-78
2023/06/06 02:33:07;;;;;;;6.43;5.07;;;14.40;1.00;;;;;;5053734;28;20199;-76
2023/06/06 02:35:33;;;;;;;8.70;5.37;;;14.40;1.00;;;;;;5053744;28;20179;-77
2023/06/06 02:37:59;;;;;;;9.57;5.60;;;14.40;1.00;;;;;;5056459;28;20255;-78
2023/06/06 02:40:25;;;;;;;7.97;5.03;;;14.40;1.00;;;;;;5053817;28;20195;-78
2023/06/06 02:42:50;;;;;;;6.33;5.03;;;14.30;1.00;;;;;;5055528;28;20552;-78
2023/06/06 02:45:16;;;;;;;9.13;5.37;;;14.30;1.00;;;;;;5055511;28;20159;-76
2023/06/06 02:47:41;;;;;;;13.07;6.00;;;14.30;1.00;;;;;;5055296;28;20200;-78
2023/06/06 02:50:07;;;;;;;6.87;5.57;;;14.20;1.00;;;;;;5053910;28;20183;-79
2023/06/06 02:52:33;;;;;;;7.50;5.40;;;14.20;1.00;;;;;;5055370;28;20211;-78
2023/06/06 02:54:59;;;;;;;13.83;5.70;;;14.20;1.00;;;;;;5055316;28;20229;-77
2023/06/06 02:57:25;;;;;;;9.80;5.87;;;14.10;1.00;;;;;;5055377;28;20186;-77
2023/06/06 02:59:51;;;;;;;9.17;4.93;;;14.10;1.00;;;;;;5055672;28;20254;-78
2023/06/06 03:02:17;;;;;;;7.33;5.90;;;14.10;1.00;;;;;;5055916;28;20223;-79
2023/06/06 03:04:45;;;;;;;10.90;5.70;;;14.10;1.00;;;;;;5055314;28;20187;-78
2023/06/06 03:07:12;;;;;;;8.00;5.70;;;14.00;1.00;;;;;;5056345;28;20175;-79
2023/06/06 03:09:38;;;;;;;8.07;5.90;;;14.00;1.00;;;;;;5056328;28;20584;-78
2023/06/06 03:12:04;;;;;;;8.47;5.57;;;14.00;1.00;;;;;;5066190;28;20207;-77
2023/06/06 03:14:30;;;;;;;13.60;6.60;;;14.00;1.00;;;;;;5072605;28;20589;-76
2023/06/06 03:16:56;;;;;;;7.97;5.43;;;13.90;1.00;;;;;;5072509;28;20175;-77
2023/06/06 03:19:22;;;;;;;12.83;6.70;;;13.90;28.50;;;;;;5054962;28;20176;-78
2023/06/06 03:21:47;;;;;;;10.83;6.17;;;13.90;1.00;;;;;;5054502;28;20176;-78
2023/06/06 03:24:13;;;;;;;8.80;5.90;;;13.90;48.30;;;;;;5052640;28;20672;-77
2023/06/06 03:26:39;;;;;;;10.33;5.80;;;13.90;34.90;;;;;;5054200;28;20546;-78
2023/06/06 03:29:05;;;;;;;7.33;6.33;;;13.80;7.60;;;;;;5052815;28;20222;-78
2023/06/06 03:31:31;;;;;;;7.93;5.60;;;13.80;8.20;;;;;;5053165;28;20235;-76
2023/06/06 03:33:57;;;;;;;8.83;5.87;;;13.80;1.00;;;;;;5054550;28;20203;-78
2023/06/06 03:36:23;;;;;;;9.00;6.50;;;13.70;17.30;;;;;;5052412;28;20207;-77
2023/06/06 03:38:48;;;;;;;9.53;6.10;;;13.70;1.00;;;;;;5054056;28;20168;-78
2023/06/06 03:41:14;;;;;;;9.10;6.40;;;13.70;30.00;;;;;;5053271;28;20182;-77
2023/06/06 03:43:43;;;;;;;6.23;5.57;;;13.70;56.90;;;;;;5053191;28;20202;-78
2023/06/06 03:46:08;;;;;;;11.63;6.27;;;13.70;10.00;;;;;;5053489;28;20201;-77
2023/06/06 03:48:34;;;;;;;10.23;6.37;;;13.70;50.60;;;;;;5053022;28;20644;-76
2023/06/06 03:51:00;;;;;;;10.40;6.60;;;13.60;41.00;;;;;;5052896;28;20207;-78
2023/06/06 03:53:25;;;;;;;13.70;6.37;;;13.60;99.90;;;;;;5051786;28;20291;-77
2023/06/06 03:55:51;;;;;;;11.53;6.47;;;13.60;99.90;;;;;;5053023;28;20179;-77
2023/06/06 03:58:18;;;;;;;8.83;6.27;;;13.60;99.90;;;;;;5051705;28;20203;-78
2023/06/06 04:00:44;;;;;;;12.97;6.73;;;13.60;99.90;;;;;;5053256;28;20679;-77
2023/06/06 04:03:10;;;;;;;10.77;6.87;;;13.60;99.90;;;;;;5053128;28;20206;-77
2023/06/06 04:05:36;;;;;;;9.87;6.23;;;13.60;99.90;;;;;;5053020;28;20171;-78
2023/06/06 04:08:02;;;;;;;7.23;5.97;;;13.60;99.90;;;;;;5053008;28;20203;-77
2023/06/06 04:10:27;;;;;;;6.50;5.73;;;13.60;99.90;;;;;;5051656;28;20654;-76
2023/06/06 04:12:53;;;;;;;11.60;7.03;;;13.60;99.90;;;;;;5052815;28;20192;-76
2023/06/06 04:15:18;;;;;;;7.07;5.77;;;13.60;99.90;;;;;;5053164;28;20659;-78
2023/06/06 04:17:45;;;;;;;9.73;6.47;;;13.60;99.90;;;;;;5051447;28;20179;-76
2023/06/06 04:20:11;;;;;;;8.93;6.03;;;13.60;99.90;;;;;;5051668;28;20183;-76
2023/06/06 04:22:38;;;;;;;7.83;5.60;;;13.60;99.90;;;;;;5052707;28;20683;-78
2023/06/06 04:25:04;;;;;;;8.63;6.17;;;13.60;99.90;;;;;;5051545;28;20627;-78
2023/06/06 04:27:31;;;;;;;10.87;6.00;;;13.70;99.90;;;;;;5051755;28;20182;-79
2023/06/06 04:29:57;;;;;;;11.63;6.70;;;13.70;99.90;;;;;;5052662;28;20309;-76
2023/06/06 04:32:23;;;;;;;9.83;6.17;;;13.70;99.90;;;;;;5054408;28;20775;-78
2023/06/06 04:34:51;;;;;;;8.33;6.00;;;13.70;99.90;;;;;;5052782;28;20222;-79
2023/06/06 04:37:18;;;;;;;10.87;5.90;;;13.70;99.90;;;;;;5054113;28;20164;-78
2023/06/06 04:39:44;;;;;;;9.60;6.60;;;13.70;87.00;;;;;;5049163;28;20183;-77
2023/06/06 04:42:10;;;;;;;8.43;6.57;;;13.60;53.00;;;;;;5040783;28;20187;-78
2023/06/06 04:44:42;;;;;;;12.77;6.90;;;13.80;58.30;;;;;;5053885;28;20186;-79
2023/06/06 04:47:10;;;;;;;9.77;6.47;;;13.80;21.00;;;;;;5053595;28;20266;-80
2023/06/06 04:49:38;;;;;;;10.33;6.37;;;13.80;1.40;;;;;;5058136;28;20199;-79
2023/06/06 04:52:05;;;;;;;9.67;6.57;;;13.80;1.00;;;;;;5057866;28;20216;-79
2023/06/06 04:54:31;;;;;;;9.33;6.73;;;13.80;1.00;;;;;;5047186;28;20661;-79
2023/06/06 04:56:57;;;;;;;9.33;6.23;;;13.80;1.00;;;;;;5056823;28;20191;-79
2023/06/06 04:59:23;;;;;;;10.50;6.13;;;13.80;1.00;;;;;;5058056;28;20543;-79
2023/06/06 05:01:49;;;;;;;11.03;6.00;;;13.90;1.00;;;;;;5057320;28;20179;-79
2023/06/06 05:04:18;;;;;;;8.23;6.30;;;13.90;1.00;;;;;;5053680;28;20561;-78
2023/06/06 05:06:44;;;;;;;8.50;6.20;;;13.90;1.00;;;;;;5037039;28;20242;-78
2023/06/06 05:09:09;;;;;;;11.00;6.30;;;13.90;1.00;;;;;;5036136;28;20274;-78
2023/06/06 05:11:35;;;;;;;12.43;6.80;;;14.00;1.00;;;;;;5046054;28;20294;-78
2023/06/06 05:14:01;;;;;;;10.90;6.70;;;14.00;1.00;;;;;;5036675;28;20219;-77
2023/06/06 05:16:27;;;;;;;9.50;6.60;;;14.00;1.00;;;;;;5035323;28;20172;-78
2023/06/06 05:18:53;;;;;;;11.20;7.27;;;14.00;1.00;;;;;;5035593;28;20557;-78
2023/06/06 05:21:19;;;;;;;9.37;5.73;;;14.00;1.00;;;;;;5037151;28;20176;-78
2023/06/06 05:23:45;;;;;;;10.17;6.97;;;14.10;1.00;;;;;;5037100;28;20188;-81
2023/06/06 05:26:10;;;;;;;11.20;6.60;;;14.10;1.00;;;;;;5036850;28;20664;-81
2023/06/06 05:28:38;;;;;;;12.47;6.90;;;14.10;1.00;;;;;;5037187;28;20184;-78
2023/06/06 05:31:05;;;;;;;11.97;6.70;;;14.10;1.00;;;;;;5034931;28;20208;-78
2023/06/06 05:33:31;;;;;;;11.80;6.57;;;14.20;1.00;;;;;;5036417;28;20210;-78
2023/06/06 05:35:56;;;;;;;12.23;7.13;;;14.20;1.00;;;;;;5034925;28;20168;-79
2023/06/06 05:38:23;;;;;;;10.33;6.53;;;14.20;1.00;;;;;;5036442;28;20180;-78
2023/06/06 05:40:48;;;;;;;14.80;7.20;;;14.20;1.00;;;;;;5035183;28;20211;-79
2023/06/06 05:43:14;;;;;;;12.83;7.40;;;14.30;1.00;;;;;;5034959;28;20224;-79
2023/06/06 05:45:40;;;;;;;16.33;6.60;;;14.30;1.00;;;;;;5036305;28;20191;-78
2023/06/06 05:48:06;;;;;;;13.50;6.97;;;14.40;1.00;;;;;;5034818;28;20267;-78
2023/06/06 05:50:31;;;;;;;9.40;7.03;;;14.40;1.00;;;;;;5033961;28;20633;-78
2023/06/06 05:52:57;;;;;;;8.77;6.50;;;14.40;1.00;;;;;;5035830;28;20275;-78
2023/06/06 05:55:41;;;;;;;11.37;7.30;;;14.40;1.00;;;;;;5036106;28;20176;-79
2023/06/06 05:58:07;;;;;;;15.00;7.43;;;14.50;1.00;;;;;;5036360;28;20181;-79
2023/06/06 06:00:33;;;;;;;11.43;7.63;;;14.50;1.00;;;;;;5034747;28;20184;-78
2023/06/06 06:03:00;;;;;;;14.00;6.70;;;14.50;1.00;;;;;;5036097;28;20192;-79
2023/06/06 06:05:30;;;;;;;11.57;7.63;;;14.50;1.00;;;;;;5036081;28;20172;-79
2023/06/06 06:08:00;;;;;;;11.83;7.80;;;14.60;1.00;;;;;;5034398;28;20192;-79
2023/06/06 06:10:29;;;;;;;12.93;7.50;;;14.70;1.00;;;;;;5034694;28;20169;-78
2023/06/06 06:12:55;;;;;;;11.20;7.43;;;14.60;1.00;;;;;;5035859;28;20192;-79
2023/06/06 06:15:21;;;;;;;15.00;7.40;;;14.70;1.00;;;;;;5034636;28;20279;-79
2023/06/06 06:17:47;;;;;;;14.20;8.27;;;14.80;1.00;;;;;;5034607;28;20174;-79
2023/06/06 06:20:15;;;;;;;16.23;7.53;;;14.80;1.00;;;;;;5034985;28;20675;-79
2023/06/06 06:22:40;;;;;;;14.47;7.63;;;14.80;1.00;;;;;;5034325;28;20539;-79
2023/06/06 06:25:08;;;;;;;14.80;8.00;;;14.80;1.00;;;;;;5035982;28;20195;-78
2023/06/06 06:27:35;;;;;;;11.47;7.27;;;14.90;1.00;;;;;;5036492;28;20164;-79
2023/06/06 06:30:04;;;;;;;14.90;7.67;;;15.00;1.00;;;;;;5034685;28;20200;-79
2023/06/06 06:32:31;;;;;;;11.50;7.80;;;14.90;1.00;;;;;;5036111;28;20200;-79
2023/06/06 06:34:56;;;;;;;14.43;8.03;;;15.00;1.00;;;;;;5036030;28;20168;-79
2023/06/06 06:37:23;;;;;;;10.00;7.30;;;15.00;1.00;;;;;;5034622;28;20219;-79
2023/06/06 06:39:49;;;;;;;12.80;7.93;;;15.10;1.00;;;;;;5034475;28;20172;-79
2023/06/06 06:42:15;;;;;;;13.03;8.13;;;15.20;1.00;;;;;;5035106;28;20542;-81
2023/06/06 06:44:40;;;;;;;11.67;7.40;;;15.20;1.00;;;;;;5034909;28;20673;-79
2023/06/06 06:47:06;;;;;;;12.43;7.97;;;15.30;1.00;;;;;;5036377;28;20210;-79
2023/06/06 06:49:31;;;;;;;14.30;7.60;;;15.30;1.00;;;;;;5036523;28;20188;-79
2023/06/06 06:51:57;;;;;;;17.60;8.50;;;15.40;1.00;;;;;;5036367;28;20192;-79
2023/06/06 06:54:24;;;;;;;16.50;8.50;;;15.40;1.00;;;;;;5034588;28;20191;-79
2023/06/06 06:56:51;;;;;;;12.20;8.03;;;15.50;1.00;;;;;;5041617;28;20160;-77
2023/06/06 06:59:17;;;;;;;10.13;8.47;;;15.60;1.00;;;;;;5049227;28;20160;-78
2023/06/06 07:01:47;;;;;;;11.10;8.03;;;15.60;1.00;;;;;;5048963;28;20176;-77
2023/06/06 07:04:13;;;;;;;15.40;8.50;;;15.70;1.00;;;;;;5034896;28;20188;-78
2023/06/06 07:06:39;;;;;;;13.30;8.00;;;15.70;1.00;;;;;;5034117;28;20179;-77
2023/06/06 07:09:05;;;;;;;15.93;8.47;;;15.70;1.00;;;;;;5034198;28;20707;-77
2023/06/06 07:11:31;;;;;;;11.97;8.17;;;15.80;1.00;;;;;;5033340;28;20254;-78
2023/06/06 07:13:56;;;;;;;14.23;8.03;;;15.90;1.00;;;;;;5049252;28;20265;-78
2023/06/06 07:16:25;;;;;;;14.40;9.57;;;16.00;1.00;;;;;;5033774;28;20165;-76
2023/06/06 07:18:52;;;;;;;16.30;8.80;;;16.00;1.00;;;;;;5034049;28;20514;-78
2023/06/06 07:21:21;;;;;;;15.27;9.17;;;16.00;1.00;;;;;;5034054;28;20186;-77
2023/06/06 07:23:48;;;;;;;14.03;8.87;;;16.10;1.00;;;;;;5032903;28;20283;-78
2023/06/06 07:26:16;;;;;;;18.37;9.00;;;16.20;1.00;;;;;;5035546;28;20263;-82
2023/06/06 07:28:42;;;;;;;12.43;8.00;;;16.20;1.00;;;;;;5035538;28;20176;-82
2023/06/06 07:31:08;;;;;;;12.07;8.73;;;16.20;1.00;;;;;;5037962;28;20227;-82
2023/06/06 07:33:34;;;;;;;11.10;7.53;;;16.40;1.00;;;;;;5034411;28;20222;-82
2023/06/06 07:35:59;;;;;;;13.10;7.70;;;16.40;1.00;;;;;;5034125;28;20264;-82
2023/06/06 07:38:25;;;;;;;15.77;7.57;;;16.50;1.00;;;;;;5036659;28;20199;-82
2023/06/06 07:40:50;;;;;;;11.70;7.37;;;16.50;1.00;;;;;;5036509;28;20176;-82
2023/06/06 07:43:16;;;;;;;14.63;8.03;;;16.60;1.00;;;;;;5036260;28;20608;-82
2023/06/06 07:45:41;;;;;;;13.90;7.90;;;16.70;1.00;;;;;;5034427;28;20176;-81
2023/06/06 07:48:07;;;;;;;14.27;8.17;;;16.70;1.00;;;;;;5035434;28;20700;-81
2023/06/06 07:50:32;;;;;;;14.40;8.63;;;16.80;99.90;;;;;;5034008;28;20196;-81
2023/06/06 07:52:58;;;;;;;11.97;7.23;;;16.80;99.90;;;;;;5035539;28;20635;-83
2023/06/06 07:55:24;;;;;;;11.87;7.93;;;17.00;1.00;;;;;;5034485;28;20172;-81
2023/06/06 07:57:50;;;;;;;17.97;8.10;;;17.00;1.00;;;;;;5035072;28;20514;-82
2023/06/06 08:00:16;;;;;;;12.77;7.53;;;17.10;99.90;;;;;;5035342;28;20179;-81
2023/06/06 08:02:42;;;;;;;11.87;7.73;;;17.10;1.00;;;;;;5033932;28;20278;-82
2023/06/06 08:05:08;;;;;;;11.90;8.27;;;17.20;1.00;;;;;;5033906;28;20238;-81
2023/06/06 08:07:41;;;;;;;14.27;7.43;;;17.30;1.00;;;;;;5035687;28;20172;-81
2023/06/06 08:10:07;;;;;;;13.07;7.20;;;17.60;99.90;;;;;;5034688;28;20522;-82
2023/06/06 08:12:33;;;;;;;12.97;7.60;;;17.50;1.00;;;;;;5033872;28;20302;-80
2023/06/06 08:14:58;;;;;;;11.80;6.80;;;17.60;99.90;;;;;;5035524;28;20207;-82
2023/06/06 08:17:24;;;;;;;13.97;7.43;;;17.70;99.90;;;;;;5033947;28;20700;-81
2023/06/06 08:19:49;;;;;;;11.33;7.30;;;17.70;99.90;;;;;;5035011;28;20541;-82
2023/06/06 08:22:15;;;;;;;12.80;7.40;;;17.80;99.90;;;;;;5036219;28;20192;-83
2023/06/06 08:24:41;;;;;;;9.20;6.73;;;17.80;99.90;;;;;;5037773;28;20172;-84
2023/06/06 08:27:07;;;;;;;12.50;7.17;;;17.90;99.90;;;;;;5037064;28;20179;-83
2023/06/06 08:29:33;;;;;;;9.47;6.73;;;17.90;99.90;;;;;;5039391;28;20554;-83
2023/06/06 08:32:01;;;;;;;10.03;7.03;;;18.10;99.90;;;;;;5037212;28;20572;-84
2023/06/06 08:34:27;;;;;;;10.90;7.07;;;18.10;99.90;;;;;;5039205;28;20165;-80
2023/06/06 08:36:53;;;;;;;10.40;6.83;;;18.20;99.90;;;;;;5037745;28;20258;-82
2023/06/06 08:39:19;;;;;;;11.40;7.57;;;18.30;99.90;;;;;;5038226;28;20667;-82
2023/06/06 08:41:52;;;;;;;16.60;6.00;;;18.40;99.90;;;;;;5039705;28;20195;-81
2023/06/06 08:44:20;;;;;;;8.77;6.30;;;18.50;99.90;;;;;;5036806;28;20191;-81
2023/06/06 08:46:49;;;;;;;11.67;8.50;;;18.60;99.90;;;;;;5037395;28;20657;-82
2023/06/06 08:49:18;;;;;;;12.23;7.70;;;18.70;99.90;;;;;;5039129;28;20592;-82
2023/06/06 08:51:45;;;;;;;11.37;7.27;;;18.80;99.90;;;;;;5037753;28;20184;-82
2023/06/06 08:54:11;;;;;;;16.23;6.80;;;18.80;99.90;;;;;;5037511;28;20214;-82
2023/06/06 08:56:38;;;;;;;11.27;6.00;;;19.00;99.90;;;;;;5039248;28;20179;-82
2023/06/06 08:59:03;;;;;;;10.83;7.27;;;19.10;99.90;;;;;;5039385;28;20168;-82
2023/06/06 09:01:30;;;;;;;12.43;7.57;;;19.00;99.90;;;;;;5038604;28;20175;-82
2023/06/06 09:03:58;;;;;;;14.13;7.43;;;19.10;99.90;;;;;;5037258;28;20204;-82
2023/06/06 09:06:23;;;;;;;9.67;7.13;;;19.10;97.70;;;;;;5039498;28;20238;-82
2023/06/06 09:08:49;;;;;;;13.67;7.67;;;19.20;99.90;;;;;;5037195;28;20176;-82
2023/06/06 09:11:16;;;;;;;12.10;6.97;;;19.40;99.90;;;;;;5039102;28;20201;-82
2023/06/06 09:13:43;;;;;;;11.27;7.10;;;19.40;99.90;;;;;;5037807;28;20272;-81
2023/06/06 09:16:08;;;;;;;11.97;6.93;;;19.50;8.10;;;;;;5055773;28;20680;-81
2023/06/06 09:18:35;;;;;;;13.27;7.07;;;19.40;62.30;;;;;;5055302;28;20181;-82
2023/06/06 09:21:01;;;;;;;10.73;6.37;;;19.60;99.30;;;;;;5053729;28;20176;-81
2023/06/06 09:23:31;;;;;;;14.13;7.53;;;19.70;51.50;;;;;;5053542;28;20198;-81
2023/06/06 09:25:57;;;;;;;12.10;6.37;;;19.80;1.00;;;;;;5051783;28;20194;-81
2023/06/06 09:28:40;;;;;;;10.40;6.53;;;19.90;1.00;;;;;;5047566;28;20195;-82
2023/06/06 09:31:37;;;;;;;11.67;7.57;;;20.00;1.00;;;;;;5039901;28;20203;-83
2023/06/06 09:34:03;;;;;;;12.53;6.10;;;20.10;1.00;;;;;;5039463;28;20192;-83
2023/06/06 09:36:29;;;;;;;11.47;7.43;;;20.20;1.00;;;;;;5040103;28;20173;-83
2023/06/06 09:39:05;;;;;;;8.70;5.80;;;20.30;1.00;;;;;;5040847;28;20171;-83
2023/06/06 09:41:37;;;;;;;11.40;6.20;;;20.30;1.00;;;;;;5040888;28;20168;-81
2023/06/06 09:44:03;;;;;;;16.93;5.87;;;20.40;1.00;;;;;;5039218;28;20204;-82
2023/06/06 09:46:34;;;;;;;14.30;6.10;;;20.50;1.00;;;;;;5041431;28;20176;-83
2023/06/06 09:49:00;;;;;;;11.03;6.10;;;20.60;1.00;;;;;;5040562;28;20183;-83
2023/06/06 09:51:30;;;;;;;10.10;5.83;;;20.70;1.00;;;;;;5047787;28;20227;-83
2023/06/06 09:53:56;;;;;;;12.83;5.70;;;20.70;1.00;;;;;;5058999;28;20185;-80
2023/06/06 09:56:23;;;;;;;10.53;5.67;;;20.80;1.00;;;;;;5052114;28;20248;-83
2023/06/06 09:58:56;;;;;;;8.13;5.30;;;20.80;1.00;;;;;;5048404;28;20188;-82
2023/06/06 10:01:31;;;;;;;8.60;5.80;;;20.90;1.00;;;;;;5048844;28;20184;-81
2023/06/06 10:03:57;;;;;;;7.50;4.83;;;21.00;1.00;;;;;;5049369;28;20207;-83
2023/06/06 10:06:26;;;;;;;6.13;4.43;;;21.10;1.00;;;;;;5053152;28;20218;-80
2023/06/06 10:08:56;;;;;;;9.70;5.00;;;21.10;1.00;;;;;;5058453;28;20169;-83
2023/06/06 10:11:22;;;;;;;9.87;5.70;;;21.30;1.00;;;;;;5047324;28;20333;-83
2023/06/06 10:13:53;;;;;;;11.60;6.27;;;21.40;1.00;;;;;;5043200;28;20192;-84
2023/06/06 10:16:20;;;;;;;10.23;5.87;;;21.50;1.00;;;;;;5041301;28;20173;-83
2023/06/06 10:18:46;;;;;;;11.57;5.17;;;21.60;1.00;;;;;;5042355;28;20172;-84
2023/06/06 10:21:15;;;;;;;13.47;5.13;;;21.70;1.00;;;;;;5042934;28;20208;-83
2023/06/06 10:23:41;;;;;;;8.27;5.57;;;21.70;1.00;;;;;;5041639;28;20291;-83
2023/06/06 10:26:09;;;;;;;10.57;5.43;;;21.80;1.00;;;;;;5039323;28;20219;-83
2023/06/06 10:28:42;;;;;;;6.40;4.93;;;21.90;1.00;;;;;;5039840;28;20533;-83
2023/06/06 10:31:16;;;;;;;11.57;5.20;;;21.90;1.00;;;;;;5040589;28;20192;-84
2023/06/06 10:33:47;;;;;;;8.60;5.37;;;22.00;1.00;;;;;;5040393;28;20196;-83
2023/06/06 10:36:17;;;;;;;10.87;5.10;;;22.00;99.90;;;;;;5041871;28;20235;-83
2023/06/06 10:39:28;;;;;;;6.10;3.93;;;22.00;1.00;;;;;;5045949;28;20187;-83
2023/06/06 10:41:58;;;;;;;8.60;4.77;;;22.10;1.00;;;;;;5051447;28;20184;-81
2023/06/06 10:44:35;;;;;;;5.97;4.10;;;22.20;99.90;;;;;;5054906;28;20268;-82
2023/06/06 10:47:35;;;;;;;10.00;4.40;;;22.20;99.90;;;;;;5046796;28;20663;-84
2023/06/06 10:50:13;;;;;;;6.63;3.80;;;22.40;96.40;;;;;;5037676;28;20673;-84
2023/06/06 10:53:01;;;;;;;8.87;4.43;;;22.50;99.90;;;;;;5038078;28;20207;-84
2023/06/06 10:55:30;;;;;;;7.93;4.67;;;22.50;1.00;;;;;;5037782;28;20176;-84
2023/06/06 10:58:20;;;;;;;8.10;4.23;;;22.60;99.90;;;;;;5039320;28;20164;-83
2023/06/06 11:00:50;;;;;;;7.20;3.80;;;22.80;1.00;;;;;;5038118;28;20176;-84
2023/06/06 11:03:19;;;;;;;10.63;4.40;;;22.80;99.90;;;;;;5037436;28;20192;-83
2023/06/06 11:06:19;;;;;;;5.70;4.07;;;22.90;1.00;;;;;;5039189;28;20342;-83
2023/06/06 11:08:56;;;;;;;5.33;3.33;;;22.90;1.00;;;;;;5031697;28;20552;-83
2023/06/06 11:11:29;;;;;;;5.07;3.40;;;23.00;1.00;;;;;;5037805;28;20195;-84
2023/06/06 11:13:57;;;;;;;6.50;3.97;;;23.20;99.90;;;;;;5038407;28;20184;-83
2023/06/06 11:16:41;;;;;;;7.13;3.43;;;23.20;99.90;;;;;;5036965;28;20173;-83
2023/06/06 11:19:09;;;;;;;5.83;3.87;;;23.40;1.00;;;;;;5038465;28;20152;-83
2023/06/06 11:21:38;;;;;;;7.27;4.23;;;23.40;99.90;;;;;;5037142;28;20203;-83
2023/06/06 11:24:05;;;;;;;5.67;3.73;;;23.40;1.00;;;;;;5037373;28;20210;-83
2023/06/06 11:26:35;;;;;;;5.97;3.70;;;23.40;99.90;;;;;;5054202;28;20179;-83
2023/06/06 11:29:01;;;;;;;5.43;3.80;;;23.50;99.90;;;;;;5038382;28;20216;-84
2023/06/06 11:31:27;;;;;;;7.83;3.73;;;23.40;99.90;;;;;;5037855;28;20188;-84
2023/06/06 11:34:13;;;;;;;6.43;3.07;;;23.50;99.90;;;;;;5038131;28;20599;-84
2023/06/06 11:36:40;;;;;;;6.43;3.37;;;23.60;1.00;;;;;;5036691;28;20466;-83
2023/06/06 11:39:11;;;;;;;6.93;3.43;;;23.80;99.90;;;;;;5037127;28;20168;-83
2023/06/06 11:41:41;;;;;;;8.20;2.97;;;23.80;1.00;;;;;;5038196;28;20187;-82
2023/06/06 11:44:07;;;;;;;7.77;4.40;;;23.90;19.20;;;;;;5036476;28;20287;-84
2023/06/06 11:46:50;;;;;;;7.50;3.93;;;23.90;83.30;;;;;;5038163;28;20218;-82
2023/06/06 11:49:21;;;;;;;7.80;4.53;;;24.00;1.00;;;;;;5037965;28;20203;-82
2023/06/06 11:51:57;;;;;;;7.43;3.67;;;24.00;52.70;;;;;;5040094;28;20215;-84
2023/06/06 11:54:23;;;;;;;5.47;3.80;;;24.10;99.90;;;;;;5037840;28;20173;-83
2023/06/06 11:56:52;;;;;;;9.67;3.60;;;24.00;1.00;;;;;;5037825;28;20260;-82
2023/06/06 11:59:19;;;;;;;7.57;3.70;;;24.20;99.90;;;;;;5037235;28;20180;-83
2023/06/06 12:01:58;;;;;;;10.82;3.88;;;24.30;99.90;;;;;;5036740;28;20271;-83
2023/06/06 12:04:25;;;;;;;5.37;2.87;;;24.40;1.00;;;;;;5036298;28;20554;-84
2023/06/06 12:06:53;;;;;;;9.30;3.40;;;24.50;1.00;;;;;;5038210;28;20179;-83
2023/06/06 12:09:19;;;;;;;8.53;2.93;;;24.60;99.90;;;;;;5036649;28;20180;-84
2023/06/06 12:11:55;;;;;;;6.10;3.47;;;24.60;99.90;;;;;;5037620;28;20696;-83
2023/06/06 12:14:22;;;;;;;10.50;3.50;;;24.80;1.00;;;;;;5039852;28;20163;-83
2023/06/06 12:16:48;;;;;;;4.82;3.38;;;24.80;99.90;;;;;;5038716;28;20172;-84
2023/06/06 12:19:14;;;;;;;5.00;2.63;;;24.70;99.90;;;;;;5038082;28;20179;-83
2023/06/06 12:21:51;;;;;;;5.70;2.95;;;24.70;99.90;;;;;;5038415;28;20172;-81
2023/06/06 12:24:18;;;;;;;5.33;3.13;;;24.40;99.90;;;;;;5039279;28;20171;-80
2023/06/06 12:26:51;;;;;;;6.82;3.08;;;24.50;1.00;;;;;;5053950;28;20184;-80
2023/06/06 12:29:18;;;;;;;7.53;3.07;;;24.50;1.00;;;;;;5073156;28;20168;-82
2023/06/06 12:31:45;;;;;;;5.87;2.90;;;24.60;1.00;;;;;;5073584;28;20207;-83
2023/06/06 12:34:13;;;;;;;8.20;2.80;;;24.70;1.00;;;;;;5057250;28;20250;-83
2023/06/06 12:36:38;;;;;;;3.67;2.40;;;24.70;1.00;;;;;;5070862;28;20221;-82
2023/06/06 12:39:07;;;;;;;4.70;2.55;;;24.70;1.00;;;;;;5074787;28;20179;-83
2023/06/06 12:41:40;;;;;;;4.28;2.70;;;24.90;1.00;;;;;;5073306;28;20195;-83
2023/06/06 12:44:09;;;;;;;3.90;2.63;;;25.10;99.90;;;;;;5072787;28;20195;-84
2023/06/06 12:46:35;;;;;;;4.17;2.57;;;24.90;1.00;;;;;;5072833;28;20179;-84
2023/06/06 12:49:01;;;;;;;3.10;2.50;;;25.00;1.00;;;;;;5055868;28;20213;-83
2023/06/06 12:51:26;;;;;;;3.13;2.53;;;25.10;1.00;;;;;;5049259;28;20200;-83
2023/06/06 12:53:52;;;;;;;3.35;2.28;;;25.20;1.00;;;;;;5036932;28;20679;-83
2023/06/06 12:56:17;;;;;;;3.63;2.38;;;25.20;1.00;;;;;;5036862;28;20172;-83
2023/06/06 12:58:45;;;;;;;6.50;2.38;;;25.20;1.00;;;;;;5037474;28;20176;-82
2023/06/06 13:01:13;;;;;;;4.65;2.63;;;25.20;1.00;;;;;;5049662;28;20617;-81
2023/06/06 13:03:38;;;;;;;3.72;2.50;;;25.20;1.00;;;;;;5034687;28;20188;-82
2023/06/06 13:06:05;;;;;;;3.13;2.28;;;25.30;1.00;;;;;;5049191;28;20249;-82
2023/06/06 13:08:32;;;;;;;4.43;2.42;;;25.40;1.00;;;;;;5033460;28;20172;-81